Terminal Aerodrome Forecast
Issued by NWS

Home | Current Version | Previous Version | Text Only | Print | Product List | Glossary On
Versions: 1 2 3 4 5 6 7 8 9 10 11 12 13 14
151
FTUS44 KEPZ 250523
TAFLRU
TAF
KLRU 250523Z 2506/2606 27010KT P6SM SCT250
     FM251600 26015G25KT P6SM SCT250
     FM251900 24025G35KT P6SM FEW150 SCT250
     FM260300 26010KT P6SM SCT250=

USA.gov is the U.S. government's official web portal to all federal, state and local government web resources and services.